sensor_id;sensor_type;location;lat;lon;timestamp;P1;durP1;ratioP1;P2;durP2;ratioP2
17818;SDS011;9034;50.284;19.310;2023-02-08T00:00:07;108.50;;;54.60;;
17818;SDS011;9034;50.284;19.310;2023-02-08T00:01:12;109.65;;;56.38;;
17818;SDS011;9034;50.284;19.310;2023-02-08T00:02:15;107.80;;;57.03;;
17818;SDS011;9034;50.284;19.310;2023-02-08T00:03:18;107.88;;;54.03;;
17818;SDS011;9034;50.284;19.310;2023-02-08T00:04:20;90.97;;;52.25;;
17818;SDS011;9034;50.284;19.310;2023-02-08T00:05:23;92.38;;;49.78;;
17818;SDS011;9034;50.284;19.310;2023-02-08T00:06:25;87.68;;;47.00;;
17818;SDS011;9034;50.284;19.310;2023-02-08T00:07:28;88.13;;;46.90;;
17818;SDS011;9034;50.284;19.310;2023-02-08T00:08:30;91.75;;;49.60;;
17818;SDS011;9034;50.284;19.310;2023-02-08T00:09:33;87.18;;;46.38;;
17818;SDS011;9034;50.284;19.310;2023-02-08T00:10:35;84.45;;;45.90;;
17818;SDS011;9034;50.284;19.310;2023-02-08T00:11:38;89.05;;;46.08;;
17818;SDS011;9034;50.284;19.310;2023-02-08T00:12:41;86.80;;;46.33;;
17818;SDS011;9034;50.284;19.310;2023-02-08T00:13:44;90.45;;;45.55;;
17818;SDS011;9034;50.284;19.310;2023-02-08T00:14:46;84.15;;;46.28;;
17818;SDS011;9034;50.284;19.310;2023-02-08T00:15:50;88.35;;;46.80;;
17818;SDS011;9034;50.284;19.310;2023-02-08T00:16:53;81.07;;;45.47;;
17818;SDS011;9034;50.284;19.310;2023-02-08T00:17:56;96.13;;;46.92;;
17818;SDS011;9034;50.284;19.310;2023-02-08T00:18:58;90.72;;;49.58;;
17818;SDS011;9034;50.284;19.310;2023-02-08T00:20:00;83.13;;;46.38;;
17818;SDS011;9034;50.284;19.310;2023-02-08T00:21:05;88.32;;;48.22;;
17818;SDS011;9034;50.284;19.310;2023-02-08T00:22:10;87.50;;;44.78;;
17818;SDS011;9034;50.284;19.310;2023-02-08T00:23:12;87.60;;;47.13;;
17818;SDS011;9034;50.284;19.310;2023-02-08T00:24:15;91.00;;;48.30;;
17818;SDS011;9034;50.284;19.310;2023-02-08T00:25:18;87.20;;;48.17;;
17818;SDS011;9034;50.284;19.310;2023-02-08T00:26:20;91.78;;;47.75;;
17818;SDS011;9034;50.284;19.310;2023-02-08T00:27:24;85.80;;;47.35;;
17818;SDS011;9034;50.284;19.310;2023-02-08T00:28:27;92.15;;;47.78;;
17818;SDS011;9034;50.284;19.310;2023-02-08T00:29:30;85.78;;;48.15;;
17818;SDS011;9034;50.284;19.310;2023-02-08T00:30:32;87.43;;;47.45;;
17818;SDS011;9034;50.284;19.310;2023-02-08T00:31:36;86.97;;;48.45;;
17818;SDS011;9034;50.284;19.310;2023-02-08T00:32:38;89.80;;;48.97;;
17818;SDS011;9034;50.284;19.310;2023-02-08T00:33:41;94.43;;;49.88;;
17818;SDS011;9034;50.284;19.310;2023-02-08T00:34:43;90.80;;;51.33;;
17818;SDS011;9034;50.284;19.310;2023-02-08T00:35:46;94.05;;;51.15;;
17818;SDS011;9034;50.284;19.310;2023-02-08T00:36:48;87.82;;;49.33;;
17818;SDS011;9034;50.284;19.310;2023-02-08T00:37:51;92.50;;;50.58;;
17818;SDS011;9034;50.284;19.310;2023-02-08T00:38:53;95.25;;;50.28;;
17818;SDS011;9034;50.284;19.310;2023-02-08T00:39:56;90.00;;;50.45;;
17818;SDS011;9034;50.284;19.310;2023-02-08T00:41:00;94.25;;;52.08;;
17818;SDS011;9034;50.284;19.310;2023-02-08T00:42:03;93.68;;;50.60;;
17818;SDS011;9034;50.284;19.310;2023-02-08T00:43:06;92.90;;;51.50;;
17818;SDS011;9034;50.284;19.310;2023-02-08T00:44:10;94.38;;;51.35;;
17818;SDS011;9034;50.284;19.310;2023-02-08T00:45:13;90.20;;;50.55;;
17818;SDS011;9034;50.284;19.310;2023-02-08T00:46:15;98.25;;;51.88;;
17818;SDS011;9034;50.284;19.310;2023-02-08T00:47:18;96.95;;;55.22;;
17818;SDS011;9034;50.284;19.310;2023-02-08T00:48:20;103.55;;;53.17;;
17818;SDS011;9034;50.284;19.310;2023-02-08T00:49:23;90.70;;;51.05;;
17818;SDS011;9034;50.284;19.310;2023-02-08T00:50:25;96.35;;;50.70;;
17818;SDS011;9034;50.284;19.310;2023-02-08T00:51:30;96.32;;;50.53;;
17818;SDS011;9034;50.284;19.310;2023-02-08T00:52:32;86.05;;;48.17;;
17818;SDS011;9034;50.284;19.310;2023-02-08T00:53:35;93.65;;;49.53;;
17818;SDS011;9034;50.284;19.310;2023-02-08T00:54:38;98.10;;;52.92;;
17818;SDS011;9034;50.284;19.310;2023-02-08T00:55:42;96.15;;;53.83;;
17818;SDS011;9034;50.284;19.310;2023-02-08T00:56:51;95.07;;;51.40;;
17818;SDS011;9034;50.284;19.310;2023-02-08T00:57:54;91.05;;;51.13;;
17818;SDS011;9034;50.284;19.310;2023-02-08T00:58:56;89.03;;;51.85;;
17818;SDS011;9034;50.284;19.310;2023-02-08T01:00:00;98.57;;;52.28;;
17818;SDS011;9034;50.284;19.310;2023-02-08T01:01:03;88.22;;;50.15;;
17818;SDS011;9034;50.284;19.310;2023-02-08T01:02:07;93.35;;;51.53;;
17818;SDS011;9034;50.284;19.310;2023-02-08T01:03:09;94.28;;;50.17;;
17818;SDS011;9034;50.284;19.310;2023-02-08T01:04:12;97.57;;;52.90;;
17818;SDS011;9034;50.284;19.310;2023-02-08T01:05:14;103.80;;;52.75;;
17818;SDS011;9034;50.284;19.310;2023-02-08T01:06:17;103.28;;;56.08;;
17818;SDS011;9034;50.284;19.310;2023-02-08T01:07:19;114.60;;;58.95;;
17818;SDS011;9034;50.284;19.310;2023-02-08T01:08:22;102.57;;;54.95;;
17818;SDS011;9034;50.284;19.310;2023-02-08T01:09:24;104.07;;;57.83;;
17818;SDS011;9034;50.284;19.310;2023-02-08T01:10:27;106.38;;;56.78;;
17818;SDS011;9034;50.284;19.310;2023-02-08T01:11:30;98.35;;;51.30;;
17818;SDS011;9034;50.284;19.310;2023-02-08T01:12:33;92.43;;;49.70;;
17818;SDS011;9034;50.284;19.310;2023-02-08T01:13:36;95.07;;;52.13;;
17818;SDS011;9034;50.284;19.310;2023-02-08T01:14:42;93.63;;;48.25;;
17818;SDS011;9034;50.284;19.310;2023-02-08T01:15:45;79.90;;;46.45;;
17818;SDS011;9034;50.284;19.310;2023-02-08T01:16:48;89.40;;;46.03;;
17818;SDS011;9034;50.284;19.310;2023-02-08T01:17:52;93.22;;;48.75;;
17818;SDS011;9034;50.284;19.310;2023-02-08T01:18:55;88.78;;;47.72;;
17818;SDS011;9034;50.284;19.310;2023-02-08T01:19:58;79.35;;;41.33;;
17818;SDS011;9034;50.284;19.310;2023-02-08T01:21:05;79.00;;;42.92;;
17818;SDS011;9034;50.284;19.310;2023-02-08T01:22:27;69.10;;;39.47;;
17818;SDS011;9034;50.284;19.310;2023-02-08T01:23:30;78.88;;;41.88;;
17818;SDS011;9034;50.284;19.310;2023-02-08T01:24:32;80.07;;;43.47;;
17818;SDS011;9034;50.284;19.310;2023-02-08T01:25:35;74.78;;;42.08;;
17818;SDS011;9034;50.284;19.310;2023-02-08T01:26:38;77.38;;;40.53;;
17818;SDS011;9034;50.284;19.310;2023-02-08T01:27:41;74.28;;;40.97;;
17818;SDS011;9034;50.284;19.310;2023-02-08T01:28:43;72.32;;;42.08;;
17818;SDS011;9034;50.284;19.310;2023-02-08T01:30:05;71.47;;;39.80;;
17818;SDS011;9034;50.284;19.310;2023-02-08T01:31:12;71.90;;;39.08;;
17818;SDS011;9034;50.284;19.310;2023-02-08T01:32:15;71.13;;;38.28;;
17818;SDS011;9034;50.284;19.310;2023-02-08T01:33:18;71.18;;;38.67;;
17818;SDS011;9034;50.284;19.310;2023-02-08T01:34:20;74.15;;;39.65;;
17818;SDS011;9034;50.284;19.310;2023-02-08T01:35:23;69.63;;;39.85;;
17818;SDS011;9034;50.284;19.310;2023-02-08T01:36:25;73.28;;;40.53;;
17818;SDS011;9034;50.284;19.310;2023-02-08T01:37:28;71.55;;;39.60;;
17818;SDS011;9034;50.284;19.310;2023-02-08T01:38:30;74.65;;;39.53;;
17818;SDS011;9034;50.284;19.310;2023-02-08T01:39:33;77.25;;;43.33;;
17818;SDS011;9034;50.284;19.310;2023-02-08T01:40:35;71.18;;;40.50;;
17818;SDS011;9034;50.284;19.310;2023-02-08T01:41:39;71.95;;;40.30;;
17818;SDS011;9034;50.284;19.310;2023-02-08T01:42:44;66.90;;;38.88;;
17818;SDS011;9034;50.284;19.310;2023-02-08T01:44:07;64.93;;;36.20;;
17818;SDS011;9034;50.284;19.310;2023-02-08T01:45:30;67.78;;;35.63;;
17818;SDS011;9034;50.284;19.310;2023-02-08T01:46:35;68.18;;;35.85;;
17818;SDS011;9034;50.284;19.310;2023-02-08T01:47:39;63.13;;;33.55;;
17818;SDS011;9034;50.284;19.310;2023-02-08T01:48:43;62.85;;;34.85;;
17818;SDS011;9034;50.284;19.310;2023-02-08T01:49:46;72.75;;;39.28;;
17818;SDS011;9034;50.284;19.310;2023-02-08T01:50:50;85.47;;;44.45;;
17818;SDS011;9034;50.284;19.310;2023-02-08T01:51:56;76.25;;;43.63;;
17818;SDS011;9034;50.284;19.310;2023-02-08T01:53:00;81.85;;;43.60;;
17818;SDS011;9034;50.284;19.310;2023-02-08T01:54:04;79.45;;;42.65;;
17818;SDS011;9034;50.284;19.310;2023-02-08T01:55:08;69.55;;;36.83;;
17818;SDS011;9034;50.284;19.310;2023-02-08T01:56:17;68.70;;;36.67;;
17818;SDS011;9034;50.284;19.310;2023-02-08T01:57:23;69.00;;;38.13;;
17818;SDS011;9034;50.284;19.310;2023-02-08T01:58:27;73.47;;;40.47;;
17818;SDS011;9034;50.284;19.310;2023-02-08T01:59:32;59.13;;;34.08;;
17818;SDS011;9034;50.284;19.310;2023-02-08T02:00:36;62.47;;;33.88;;
17818;SDS011;9034;50.284;19.310;2023-02-08T02:01:40;58.55;;;33.35;;
17818;SDS011;9034;50.284;19.310;2023-02-08T02:02:44;56.95;;;30.08;;
17818;SDS011;9034;50.284;19.310;2023-02-08T02:03:48;48.97;;;28.70;;
17818;SDS011;9034;50.284;19.310;2023-02-08T02:04:51;45.20;;;27.60;;
17818;SDS011;9034;50.284;19.310;2023-02-08T02:06:12;45.08;;;25.33;;
17818;SDS011;9034;50.284;19.310;2023-02-08T02:07:18;47.88;;;25.67;;
17818;SDS011;9034;50.284;19.310;2023-02-08T02:08:22;45.53;;;26.00;;
17818;SDS011;9034;50.284;19.310;2023-02-08T02:09:27;46.88;;;27.58;;
17818;SDS011;9034;50.284;19.310;2023-02-08T02:10:34;46.47;;;27.17;;
17818;SDS011;9034;50.284;19.310;2023-02-08T02:11:38;43.92;;;26.73;;
17818;SDS011;9034;50.284;19.310;2023-02-08T02:12:41;48.03;;;28.50;;
17818;SDS011;9034;50.284;19.310;2023-02-08T02:13:44;48.20;;;27.38;;
17818;SDS011;9034;50.284;19.310;2023-02-08T02:14:48;42.13;;;25.23;;
17818;SDS011;9034;50.284;19.310;2023-02-08T02:15:51;46.35;;;26.45;;
17818;SDS011;9034;50.284;19.310;2023-02-08T02:16:54;42.03;;;26.17;;
17818;SDS011;9034;50.284;19.310;2023-02-08T02:17:57;46.45;;;26.55;;
17818;SDS011;9034;50.284;19.310;2023-02-08T02:18:59;49.90;;;28.40;;
17818;SDS011;9034;50.284;19.310;2023-02-08T02:20:03;53.20;;;28.90;;
17818;SDS011;9034;50.284;19.310;2023-02-08T02:21:16;56.00;;;30.33;;
17818;SDS011;9034;50.284;19.310;2023-02-08T02:22:54;51.05;;;28.35;;
17818;SDS011;9034;50.284;19.310;2023-02-08T02:27:13;47.60;;;25.23;;
17818;SDS011;9034;50.284;19.310;2023-02-08T02:28:33;47.10;;;25.73;;
17818;SDS011;9034;50.284;19.310;2023-02-08T02:30:02;45.25;;;26.40;;
17818;SDS011;9034;50.284;19.310;2023-02-08T02:31:30;48.50;;;26.42;;
17818;SDS011;9034;50.284;19.310;2023-02-08T02:32:49;52.03;;;29.02;;
17818;SDS011;9034;50.284;19.310;2023-02-08T02:33:58;50.40;;;28.27;;
17818;SDS011;9034;50.284;19.310;2023-02-08T02:35:04;49.33;;;27.70;;
17818;SDS011;9034;50.284;19.310;2023-02-08T02:36:12;52.30;;;28.15;;
17818;SDS011;9034;50.284;19.310;2023-02-08T02:37:24;48.65;;;27.58;;
17818;SDS011;9034;50.284;19.310;2023-02-08T02:38:33;50.15;;;26.73;;
17818;SDS011;9034;50.284;19.310;2023-02-08T02:39:44;51.05;;;28.10;;
17818;SDS011;9034;50.284;19.310;2023-02-08T02:40:54;50.72;;;29.17;;
17818;SDS011;9034;50.284;19.310;2023-02-08T02:42:03;51.78;;;27.05;;
17818;SDS011;9034;50.284;19.310;2023-02-08T02:43:44;47.90;;;26.00;;
17818;SDS011;9034;50.284;19.310;2023-02-08T02:44:51;53.75;;;27.00;;
17818;SDS011;9034;50.284;19.310;2023-02-08T02:45:57;49.05;;;27.45;;
17818;SDS011;9034;50.284;19.310;2023-02-08T02:47:09;49.22;;;26.83;;
17818;SDS011;9034;50.284;19.310;2023-02-08T02:48:14;52.42;;;29.35;;
17818;SDS011;9034;50.284;19.310;2023-02-08T02:49:21;47.88;;;27.25;;
17818;SDS011;9034;50.284;19.310;2023-02-08T02:50:27;48.90;;;28.13;;
17818;SDS011;9034;50.284;19.310;2023-02-08T02:51:33;49.10;;;28.35;;
17818;SDS011;9034;50.284;19.310;2023-02-08T02:52:40;51.55;;;29.48;;
17818;SDS011;9034;50.284;19.310;2023-02-08T02:53:47;48.50;;;27.75;;
17818;SDS011;9034;50.284;19.310;2023-02-08T02:54:54;49.92;;;29.65;;
17818;SDS011;9034;50.284;19.310;2023-02-08T02:55:58;53.70;;;29.38;;
17818;SDS011;9034;50.284;19.310;2023-02-08T02:57:03;51.33;;;27.90;;
17818;SDS011;9034;50.284;19.310;2023-02-08T02:58:08;47.22;;;26.40;;
17818;SDS011;9034;50.284;19.310;2023-02-08T02:59:11;46.25;;;26.17;;
17818;SDS011;9034;50.284;19.310;2023-02-08T03:00:34;43.83;;;23.75;;
17818;SDS011;9034;50.284;19.310;2023-02-08T03:01:38;43.25;;;24.92;;
17818;SDS011;9034;50.284;19.310;2023-02-08T03:02:41;43.20;;;24.92;;
17818;SDS011;9034;50.284;19.310;2023-02-08T03:03:45;47.35;;;24.92;;
17818;SDS011;9034;50.284;19.310;2023-02-08T03:04:50;44.63;;;25.00;;
17818;SDS011;9034;50.284;19.310;2023-02-08T03:05:55;44.75;;;25.17;;
17818;SDS011;9034;50.284;19.310;2023-02-08T03:07:02;45.45;;;24.77;;
17818;SDS011;9034;50.284;19.310;2023-02-08T03:08:09;46.17;;;25.67;;
17818;SDS011;9034;50.284;19.310;2023-02-08T03:09:22;47.53;;;25.95;;
17818;SDS011;9034;50.284;19.310;2023-02-08T03:10:35;52.10;;;26.27;;
17818;SDS011;9034;50.284;19.310;2023-02-08T03:11:44;47.50;;;24.92;;
17818;SDS011;9034;50.284;19.310;2023-02-08T03:12:52;43.58;;;24.60;;
17818;SDS011;9034;50.284;19.310;2023-02-08T03:14:08;45.55;;;23.50;;
17818;SDS011;9034;50.284;19.310;2023-02-08T03:15:22;42.67;;;22.45;;
17818;SDS011;9034;50.284;19.310;2023-02-08T03:16:31;45.22;;;24.92;;
17818;SDS011;9034;50.284;19.310;2023-02-08T03:17:44;45.50;;;24.13;;
17818;SDS011;9034;50.284;19.310;2023-02-08T03:18:56;45.55;;;24.05;;
17818;SDS011;9034;50.284;19.310;2023-02-08T03:20:06;42.80;;;22.98;;
17818;SDS011;9034;50.284;19.310;2023-02-08T03:21:11;43.78;;;22.15;;
17818;SDS011;9034;50.284;19.310;2023-02-08T03:22:16;35.72;;;22.58;;
17818;SDS011;9034;50.284;19.310;2023-02-08T03:23:24;42.33;;;22.77;;
17818;SDS011;9034;50.284;19.310;2023-02-08T03:24:29;39.28;;;23.52;;
17818;SDS011;9034;50.284;19.310;2023-02-08T03:25:39;46.60;;;25.02;;
17818;SDS011;9034;50.284;19.310;2023-02-08T03:26:51;38.47;;;24.42;;
17818;SDS011;9034;50.284;19.310;2023-02-08T03:27:58;41.50;;;22.45;;
17818;SDS011;9034;50.284;19.310;2023-02-08T03:29:03;48.92;;;25.30;;
17818;SDS011;9034;50.284;19.310;2023-02-08T03:30:11;41.30;;;23.85;;
17818;SDS011;9034;50.284;19.310;2023-02-08T03:31:16;41.20;;;23.42;;
17818;SDS011;9034;50.284;19.310;2023-02-08T03:32:25;39.75;;;22.83;;
17818;SDS011;9034;50.284;19.310;2023-02-08T03:33:34;40.90;;;21.33;;
17818;SDS011;9034;50.284;19.310;2023-02-08T03:34:42;41.05;;;21.50;;
17818;SDS011;9034;50.284;19.310;2023-02-08T03:35:47;40.53;;;21.90;;
17818;SDS011;9034;50.284;19.310;2023-02-08T03:36:52;37.30;;;22.05;;
17818;SDS011;9034;50.284;19.310;2023-02-08T03:37:57;36.38;;;21.08;;
17818;SDS011;9034;50.284;19.310;2023-02-08T03:39:02;39.15;;;21.95;;
17818;SDS011;9034;50.284;19.310;2023-02-08T03:40:09;37.20;;;20.75;;
17818;SDS011;9034;50.284;19.310;2023-02-08T03:41:16;39.35;;;22.73;;
17818;SDS011;9034;50.284;19.310;2023-02-08T03:42:23;39.75;;;21.95;;
17818;SDS011;9034;50.284;19.310;2023-02-08T03:43:28;41.63;;;21.77;;
17818;SDS011;9034;50.284;19.310;2023-02-08T03:44:31;39.72;;;21.27;;
17818;SDS011;9034;50.284;19.310;2023-02-08T03:45:37;40.85;;;22.40;;
17818;SDS011;9034;50.284;19.310;2023-02-08T03:46:41;41.40;;;20.92;;
17818;SDS011;9034;50.284;19.310;2023-02-08T03:47:46;39.63;;;21.02;;
17818;SDS011;9034;50.284;19.310;2023-02-08T03:48:53;39.33;;;21.92;;
17818;SDS011;9034;50.284;19.310;2023-02-08T03:49:59;40.25;;;21.58;;
17818;SDS011;9034;50.284;19.310;2023-02-08T03:51:04;37.63;;;21.58;;
17818;SDS011;9034;50.284;19.310;2023-02-08T03:52:08;40.47;;;22.10;;
17818;SDS011;9034;50.284;19.310;2023-02-08T03:53:11;40.33;;;21.85;;
17818;SDS011;9034;50.284;19.310;2023-02-08T03:54:18;36.50;;;20.70;;
17818;SDS011;9034;50.284;19.310;2023-02-08T03:55:21;39.90;;;22.25;;
17818;SDS011;9034;50.284;19.310;2023-02-08T03:56:29;39.10;;;21.08;;
17818;SDS011;9034;50.284;19.310;2023-02-08T03:57:36;39.47;;;21.35;;
17818;SDS011;9034;50.284;19.310;2023-02-08T03:58:43;40.83;;;20.48;;
17818;SDS011;9034;50.284;19.310;2023-02-08T03:59:48;34.78;;;20.08;;
17818;SDS011;9034;50.284;19.310;2023-02-08T04:00:57;35.85;;;20.23;;
17818;SDS011;9034;50.284;19.310;2023-02-08T04:02:04;39.88;;;21.25;;
17818;SDS011;9034;50.284;19.310;2023-02-08T04:03:09;37.60;;;20.33;;
17818;SDS011;9034;50.284;19.310;2023-02-08T04:04:15;33.80;;;20.10;;
17818;SDS011;9034;50.284;19.310;2023-02-08T04:05:19;34.53;;;19.60;;
17818;SDS011;9034;50.284;19.310;2023-02-08T04:06:22;35.45;;;19.40;;
17818;SDS011;9034;50.284;19.310;2023-02-08T04:07:25;35.95;;;20.23;;
17818;SDS011;9034;50.284;19.310;2023-02-08T04:08:27;35.17;;;19.83;;
17818;SDS011;9034;50.284;19.310;2023-02-08T04:09:30;35.42;;;21.85;;
17818;SDS011;9034;50.284;19.310;2023-02-08T04:10:32;35.80;;;21.33;;
17818;SDS011;9034;50.284;19.310;2023-02-08T04:11:35;33.35;;;19.23;;
17818;SDS011;9034;50.284;19.310;2023-02-08T04:12:37;34.88;;;20.33;;
17818;SDS011;9034;50.284;19.310;2023-02-08T04:13:40;37.17;;;21.38;;
17818;SDS011;9034;50.284;19.310;2023-02-08T04:14:42;36.22;;;20.48;;
17818;SDS011;9034;50.284;19.310;2023-02-08T04:15:45;36.88;;;21.27;;
17818;SDS011;9034;50.284;19.310;2023-02-08T04:16:47;32.78;;;20.15;;
17818;SDS011;9034;50.284;19.310;2023-02-08T04:17:50;34.72;;;21.10;;
17818;SDS011;9034;50.284;19.310;2023-02-08T04:18:52;37.60;;;21.05;;
17818;SDS011;9034;50.284;19.310;2023-02-08T04:19:56;37.35;;;21.65;;
17818;SDS011;9034;50.284;19.310;2023-02-08T04:20:58;35.25;;;21.75;;
17818;SDS011;9034;50.284;19.310;2023-02-08T04:22:01;35.65;;;20.55;;
17818;SDS011;9034;50.284;19.310;2023-02-08T04:23:03;36.75;;;20.13;;
17818;SDS011;9034;50.284;19.310;2023-02-08T04:24:06;35.20;;;21.88;;
17818;SDS011;9034;50.284;19.310;2023-02-08T04:25:08;33.85;;;19.88;;
17818;SDS011;9034;50.284;19.310;2023-02-08T04:26:11;34.03;;;21.33;;
17818;SDS011;9034;50.284;19.310;2023-02-08T04:27:14;39.28;;;21.63;;
17818;SDS011;9034;50.284;19.310;2023-02-08T04:28:17;39.65;;;22.52;;
17818;SDS011;9034;50.284;19.310;2023-02-08T04:29:20;36.85;;;20.90;;
17818;SDS011;9034;50.284;19.310;2023-02-08T04:30:22;38.95;;;21.88;;
17818;SDS011;9034;50.284;19.310;2023-02-08T04:31:25;36.45;;;20.48;;
17818;SDS011;9034;50.284;19.310;2023-02-08T04:32:27;39.28;;;22.27;;
17818;SDS011;9034;50.284;19.310;2023-02-08T04:33:29;36.45;;;21.20;;
17818;SDS011;9034;50.284;19.310;2023-02-08T04:34:32;35.83;;;21.90;;
17818;SDS011;9034;50.284;19.310;2023-02-08T04:35:36;35.92;;;21.65;;
17818;SDS011;9034;50.284;19.310;2023-02-08T04:36:38;35.28;;;21.88;;
17818;SDS011;9034;50.284;19.310;2023-02-08T04:37:41;35.95;;;21.73;;
17818;SDS011;9034;50.284;19.310;2023-02-08T04:38:43;35.20;;;21.92;;
17818;SDS011;9034;50.284;19.310;2023-02-08T04:39:46;37.17;;;22.48;;
17818;SDS011;9034;50.284;19.310;2023-02-08T04:40:48;41.53;;;22.75;;
17818;SDS011;9034;50.284;19.310;2023-02-08T04:41:50;37.20;;;22.17;;
17818;SDS011;9034;50.284;19.310;2023-02-08T04:42:52;37.15;;;21.42;;
17818;SDS011;9034;50.284;19.310;2023-02-08T04:43:56;35.63;;;21.92;;
17818;SDS011;9034;50.284;19.310;2023-02-08T04:44:58;37.85;;;21.63;;
17818;SDS011;9034;50.284;19.310;2023-02-08T04:46:01;36.55;;;21.83;;
17818;SDS011;9034;50.284;19.310;2023-02-08T04:47:03;36.65;;;22.17;;
17818;SDS011;9034;50.284;19.310;2023-02-08T04:48:06;38.90;;;23.45;;
17818;SDS011;9034;50.284;19.310;2023-02-08T04:49:08;40.33;;;22.63;;
17818;SDS011;9034;50.284;19.310;2023-02-08T04:50:13;34.55;;;21.05;;
17818;SDS011;9034;50.284;19.310;2023-02-08T04:51:16;39.63;;;22.58;;
17818;SDS011;9034;50.284;19.310;2023-02-08T04:52:19;37.08;;;21.52;;
17818;SDS011;9034;50.284;19.310;2023-02-08T04:53:21;33.65;;;21.00;;
17818;SDS011;9034;50.284;19.310;2023-02-08T04:54:24;39.08;;;22.05;;
17818;SDS011;9034;50.284;19.310;2023-02-08T04:55:26;42.53;;;23.90;;
17818;SDS011;9034;50.284;19.310;2023-02-08T04:56:29;39.67;;;23.27;;
17818;SDS011;9034;50.284;19.310;2023-02-08T04:57:31;36.88;;;22.85;;
17818;SDS011;9034;50.284;19.310;2023-02-08T04:58:34;38.53;;;22.77;;
17818;SDS011;9034;50.284;19.310;2023-02-08T04:59:37;34.65;;;22.63;;
17818;SDS011;9034;50.284;19.310;2023-02-08T05:00:40;40.92;;;23.35;;
17818;SDS011;9034;50.284;19.310;2023-02-08T05:01:43;36.45;;;23.10;;
17818;SDS011;9034;50.284;19.310;2023-02-08T05:02:46;37.50;;;23.40;;
17818;SDS011;9034;50.284;19.310;2023-02-08T05:03:48;38.40;;;23.85;;
17818;SDS011;9034;50.284;19.310;2023-02-08T05:04:51;42.53;;;22.95;;
17818;SDS011;9034;50.284;19.310;2023-02-08T05:05:56;40.97;;;24.30;;
17818;SDS011;9034;50.284;19.310;2023-02-08T05:07:01;40.30;;;24.25;;
17818;SDS011;9034;50.284;19.310;2023-02-08T05:08:03;39.28;;;23.73;;
17818;SDS011;9034;50.284;19.310;2023-02-08T05:09:07;41.40;;;25.33;;
17818;SDS011;9034;50.284;19.310;2023-02-08T05:10:09;37.88;;;24.48;;
17818;SDS011;9034;50.284;19.310;2023-02-08T05:11:12;39.72;;;25.08;;
17818;SDS011;9034;50.284;19.310;2023-02-08T05:12:14;39.20;;;24.63;;
17818;SDS011;9034;50.284;19.310;2023-02-08T05:13:16;44.25;;;25.75;;
17818;SDS011;9034;50.284;19.310;2023-02-08T05:14:18;42.67;;;24.88;;
17818;SDS011;9034;50.284;19.310;2023-02-08T05:15:21;44.50;;;27.15;;
17818;SDS011;9034;50.284;19.310;2023-02-08T05:16:23;44.08;;;26.35;;
17818;SDS011;9034;50.284;19.310;2023-02-08T05:17:26;40.10;;;24.95;;
17818;SDS011;9034;50.284;19.310;2023-02-08T05:18:28;40.85;;;25.35;;
17818;SDS011;9034;50.284;19.310;2023-02-08T05:19:31;49.95;;;27.58;;
17818;SDS011;9034;50.284;19.310;2023-02-08T05:20:33;39.67;;;25.67;;
17818;SDS011;9034;50.284;19.310;2023-02-08T05:21:36;44.70;;;26.60;;
17818;SDS011;9034;50.284;19.310;2023-02-08T05:22:39;49.30;;;28.75;;
17818;SDS011;9034;50.284;19.310;2023-02-08T05:23:42;47.47;;;30.17;;
17818;SDS011;9034;50.284;19.310;2023-02-08T05:24:47;46.05;;;29.00;;
17818;SDS011;9034;50.284;19.310;2023-02-08T05:25:50;46.65;;;28.67;;
17818;SDS011;9034;50.284;19.310;2023-02-08T05:26:51;45.55;;;28.95;;
17818;SDS011;9034;50.284;19.310;2023-02-08T05:28:13;50.65;;;28.77;;
17818;SDS011;9034;50.284;19.310;2023-02-08T05:29:15;46.50;;;28.15;;
17818;SDS011;9034;50.284;19.310;2023-02-08T05:30:18;49.08;;;27.17;;
17818;SDS011;9034;50.284;19.310;2023-02-08T05:31:21;43.30;;;27.13;;
17818;SDS011;9034;50.284;19.310;2023-02-08T05:32:25;45.80;;;27.83;;
17818;SDS011;9034;50.284;19.310;2023-02-08T05:33:28;43.35;;;26.92;;
17818;SDS011;9034;50.284;19.310;2023-02-08T05:34:30;50.25;;;28.48;;
17818;SDS011;9034;50.284;19.310;2023-02-08T05:35:33;47.83;;;27.90;;
17818;SDS011;9034;50.284;19.310;2023-02-08T05:36:35;46.95;;;28.65;;
17818;SDS011;9034;50.284;19.310;2023-02-08T05:37:39;45.58;;;28.75;;
17818;SDS011;9034;50.284;19.310;2023-02-08T05:38:41;44.97;;;28.33;;
17818;SDS011;9034;50.284;19.310;2023-02-08T05:39:44;45.92;;;28.98;;
17818;SDS011;9034;50.284;19.310;2023-02-08T05:40:46;46.58;;;28.70;;
17818;SDS011;9034;50.284;19.310;2023-02-08T05:41:49;49.67;;;29.00;;
17818;SDS011;9034;50.284;19.310;2023-02-08T05:42:51;43.08;;;27.83;;
17818;SDS011;9034;50.284;19.310;2023-02-08T05:43:53;48.80;;;28.75;;
17818;SDS011;9034;50.284;19.310;2023-02-08T05:44:56;43.83;;;28.23;;
17818;SDS011;9034;50.284;19.310;2023-02-08T05:45:58;46.38;;;28.80;;
17818;SDS011;9034;50.284;19.310;2023-02-08T05:47:01;51.13;;;30.08;;
17818;SDS011;9034;50.284;19.310;2023-02-08T05:48:04;46.40;;;28.35;;
17818;SDS011;9034;50.284;19.310;2023-02-08T05:49:07;50.28;;;28.73;;
17818;SDS011;9034;50.284;19.310;2023-02-08T05:50:09;51.83;;;31.25;;
17818;SDS011;9034;50.284;19.310;2023-02-08T05:51:12;47.90;;;28.23;;
17818;SDS011;9034;50.284;19.310;2023-02-08T05:52:14;48.58;;;29.88;;
17818;SDS011;9034;50.284;19.310;2023-02-08T05:53:18;49.70;;;29.48;;
17818;SDS011;9034;50.284;19.310;2023-02-08T05:54:20;45.60;;;28.60;;
17818;SDS011;9034;50.284;19.310;2023-02-08T05:55:23;49.85;;;29.50;;
17818;SDS011;9034;50.284;19.310;2023-02-08T05:56:27;49.72;;;29.63;;
17818;SDS011;9034;50.284;19.310;2023-02-08T05:57:30;52.13;;;30.90;;
17818;SDS011;9034;50.284;19.310;2023-02-08T05:58:36;53.22;;;31.05;;
17818;SDS011;9034;50.284;19.310;2023-02-08T05:59:38;45.70;;;28.55;;
17818;SDS011;9034;50.284;19.310;2023-02-08T06:00:40;48.42;;;29.63;;
17818;SDS011;9034;50.284;19.310;2023-02-08T06:01:43;48.42;;;29.33;;
17818;SDS011;9034;50.284;19.310;2023-02-08T06:02:46;47.42;;;27.88;;
17818;SDS011;9034;50.284;19.310;2023-02-08T06:03:50;47.90;;;28.67;;
17818;SDS011;9034;50.284;19.310;2023-02-08T06:04:53;48.35;;;29.25;;
17818;SDS011;9034;50.284;19.310;2023-02-08T06:05:57;45.88;;;28.10;;
17818;SDS011;9034;50.284;19.310;2023-02-08T06:07:01;46.85;;;29.23;;
17818;SDS011;9034;50.284;19.310;2023-02-08T06:08:04;49.72;;;27.10;;
17818;SDS011;9034;50.284;19.310;2023-02-08T06:09:07;49.45;;;29.25;;
17818;SDS011;9034;50.284;19.310;2023-02-08T06:10:10;51.85;;;31.50;;
17818;SDS011;9034;50.284;19.310;2023-02-08T06:11:13;52.55;;;30.98;;
17818;SDS011;9034;50.284;19.310;2023-02-08T06:12:15;49.05;;;31.40;;
17818;SDS011;9034;50.284;19.310;2023-02-08T06:13:18;51.50;;;29.55;;
17818;SDS011;9034;50.284;19.310;2023-02-08T06:14:21;52.78;;;31.63;;
17818;SDS011;9034;50.284;19.310;2023-02-08T06:15:24;50.22;;;32.17;;
17818;SDS011;9034;50.284;19.310;2023-02-08T06:16:26;53.53;;;31.77;;
17818;SDS011;9034;50.284;19.310;2023-02-08T06:17:29;50.90;;;32.17;;
17818;SDS011;9034;50.284;19.310;2023-02-08T06:18:31;53.33;;;31.85;;
17818;SDS011;9034;50.284;19.310;2023-02-08T06:19:34;46.85;;;29.60;;
17818;SDS011;9034;50.284;19.310;2023-02-08T06:20:36;56.08;;;31.73;;
17818;SDS011;9034;50.284;19.310;2023-02-08T06:21:40;50.70;;;30.10;;